Archival Weather

Norman Y Mineta San Jose Intl

San Jose, California (KSJC)

Report from: Sunday, February 11, 2024 8:53 PM PST
Current time: Monday, June 24, 2024 2:31 AM PDT

Current weather – Weather history – Daily summaries
Weather forecast

Temperature11.7°C (53.1°F)
Dew point7.8°C (46.0°F)
Winds Calm
Visibility10 mi. (16.1 km)
Clouds Few clouds 1,200 ft. (366 m)
Altimeter30.21 in.Hg (1023 mB)
Relative humidity77 %
Density altitude-571 ft. (-174 m)
Sea-level pressure102.3 kPa (1023 mB, 30.21 in.Hg)
Remarks Automated weather observing station with precipitation discriminator
Flight conditions Visual Meteorological Conditions
Raw dataKSJC 120453Z 00000KT 10SM FEW012 12/08 A3021 RMK AO2 SLP230 T01170078
An error has occurred. This application may no longer respond until reloaded. Reload 🗙